createdAt,value
2019-01-16T00:00:25.659Z,84.65
2019-01-16T00:03:03.201Z,84.68
2019-01-16T00:05:54.281Z,84.64
2019-01-16T00:08:41.148Z,84.86
2019-01-16T00:11:28.007Z,84.93
2019-01-16T00:14:17.271Z,85.05
2019-01-16T00:17:04.242Z,84.73
2019-01-16T00:19:52.681Z,84.42
2019-01-16T00:22:46.345Z,83.97
2019-01-16T00:25:33.629Z,83.60
2019-01-16T00:28:31.297Z,83.24
2019-01-16T00:31:11.701Z,83.01
2019-01-16T00:34:00.053Z,82.83
2019-01-16T00:36:48.435Z,82.40
2019-01-16T00:39:45.069Z,82.35
2019-01-16T00:42:31.467Z,81.84
2019-01-16T00:45:31.881Z,81.58
2019-01-16T00:48:09.025Z,81.53
2019-01-16T00:50:57.423Z,81.52
2019-01-16T00:53:38.832Z,81.19
2019-01-16T00:56:36.194Z,80.60
2019-01-16T00:59:20.389Z,80.64
2019-01-16T01:01:59.327Z,80.50
2019-01-16T01:04:50.591Z,80.05
2019-01-16T01:07:37.077Z,80.04
2019-01-16T01:10:19.784Z,80.10
2019-01-16T01:13:05.119Z,79.67
2019-01-16T01:15:56.402Z,79.55
2019-01-16T01:18:43.526Z,79.58
2019-01-16T01:21:31.856Z,79.44
2019-01-16T01:24:32.489Z,79.43
2019-01-16T01:27:23.414Z,79.17
2019-01-16T01:29:59.159Z,79.05
2019-01-16T01:32:46.031Z,79.07
2019-01-16T01:35:40.323Z,79.17
2019-01-16T01:38:37.086Z,79.42
2019-01-16T01:41:40.347Z,79.39
2019-01-16T01:44:20.739Z,79.72
2019-01-16T01:47:14.851Z,79.63
2019-01-16T01:50:01.852Z,79.62
2019-01-16T01:52:50.211Z,79.79
2019-01-16T01:55:35.151Z,79.54
2019-01-16T01:58:32.787Z,79.11
2019-01-16T02:01:33.209Z,79.16
2019-01-16T02:04:27.412Z,79.23
2019-01-16T02:07:15.789Z,79.08
2019-01-16T02:09:56.427Z,78.96
2019-01-16T02:12:51.137Z,78.85
2019-01-16T02:15:49.649Z,78.69
2019-01-16T02:18:37.770Z,78.49
2019-01-16T02:21:24.933Z,78.67
2019-01-16T02:24:16.365Z,78.55
2019-01-16T02:27:03.591Z,78.59
2019-01-16T02:29:54.803Z,78.29
2019-01-16T02:32:41.965Z,78.06
2019-01-16T02:35:33.251Z,78.03
2019-01-16T02:38:21.649Z,78.01
2019-01-16T02:41:12.835Z,77.82
2019-01-16T02:44:04.232Z,78.42
2019-01-16T02:46:41.690Z,78.33
2019-01-16T02:49:25.942Z,78.42
2019-01-16T02:52:23.160Z,78.62
2019-01-16T02:55:14.325Z,78.50
2019-01-16T02:57:55.161Z,78.75
2019-01-16T03:00:35.339Z,78.83
2019-01-16T03:03:26.299Z,78.77
2019-01-16T03:06:14.665Z,79.06
2019-01-16T03:09:01.855Z,79.28
2019-01-16T03:11:53.151Z,79.57
2019-01-16T03:14:42.238Z,79.75
2019-01-16T03:17:22.966Z,79.63
2019-01-16T03:20:10.241Z,79.63
2019-01-16T03:22:57.022Z,79.60
2019-01-16T03:25:54.434Z,79.58
2019-01-16T03:28:41.382Z,79.29
2019-01-16T03:31:29.721Z,79.35
2019-01-16T03:34:25.055Z,79.45
2019-01-16T03:37:25.238Z,79.39
2019-01-16T03:40:22.878Z,79.17
2019-01-16T03:43:00.545Z,79.22
2019-01-16T03:45:47.275Z,79.19
2019-01-16T03:48:38.812Z,79.07
2019-01-16T03:51:39.477Z,78.74
2019-01-16T03:54:21.045Z,78.84
2019-01-16T03:57:04.314Z,78.67
2019-01-16T03:59:51.367Z,78.61
2019-01-16T04:02:38.797Z,78.83
2019-01-16T04:05:45.464Z,78.86
2019-01-16T04:08:47.355Z,79.04
2019-01-16T04:11:36.959Z,79.14
2019-01-16T04:14:32.911Z,79.38
2019-01-16T04:17:21.291Z,79.74
2019-01-16T04:20:03.585Z,80.08
2019-01-16T04:22:42.505Z,80.58
2019-01-16T04:25:23.609Z,80.70
2019-01-16T04:28:10.631Z,80.96
2019-01-16T04:31:08.085Z,80.89
2019-01-16T04:34:01.120Z,81.10
2019-01-16T04:36:48.296Z,81.06
2019-01-16T04:39:27.481Z,80.70
2019-01-16T04:42:20.248Z,81.07
2019-01-16T04:45:08.626Z,81.15
2019-01-16T04:47:59.773Z,81.23
2019-01-16T04:50:46.763Z,81.52
2019-01-16T04:53:37.681Z,81.01
2019-01-16T04:56:26.086Z,80.97
2019-01-16T04:59:09.747Z,80.52
2019-01-16T05:02:00.632Z,80.24
2019-01-16T05:04:47.637Z,80.00
2019-01-16T05:07:36.067Z,79.69
2019-01-16T05:10:24.380Z,79.31
2019-01-16T05:13:11.701Z,79.42
2019-01-16T05:15:57.407Z,79.57
2019-01-16T05:18:44.467Z,79.14
2019-01-16T05:21:27.487Z,79.19
2019-01-16T05:24:23.593Z,79.10
2019-01-16T05:27:11.958Z,78.96
2019-01-16T05:30:09.205Z,78.74
2019-01-16T05:32:54.253Z,78.54
2019-01-16T05:35:40.467Z,78.86
2019-01-16T05:38:27.684Z,78.94
2019-01-16T05:41:14.583Z,79.35
2019-01-16T05:44:01.455Z,79.59
2019-01-16T05:46:58.753Z,79.87
2019-01-16T05:49:55.880Z,79.80
2019-01-16T05:52:44.531Z,79.92
2019-01-16T05:55:39.435Z,80.15
2019-01-16T05:58:27.839Z,80.43
2019-01-16T06:01:14.781Z,80.18
2019-01-16T06:03:52.669Z,80.07
2019-01-16T06:06:43.775Z,80.04
2019-01-16T06:09:23.964Z,80.23
2019-01-16T06:12:21.267Z,80.12
2019-01-16T06:15:16.251Z,79.96
2019-01-16T06:18:12.109Z,79.43
2019-01-16T06:20:54.997Z,79.17
2019-01-16T06:23:41.991Z,79.26
2019-01-16T06:26:23.165Z,79.07
2019-01-16T06:29:20.529Z,79.01
2019-01-16T06:32:12.017Z,78.64
2019-01-16T06:35:00.451Z,78.67
2019-01-16T06:38:01.915Z,78.21
2019-01-16T06:40:59.102Z,78.14
2019-01-16T06:43:56.739Z,78.05
2019-01-16T06:46:47.631Z,77.96
2019-01-16T06:49:41.835Z,77.76
2019-01-16T06:52:17.947Z,77.48
2019-01-16T06:55:05.143Z,77.79
2019-01-16T06:57:52.191Z,77.58
2019-01-16T07:00:49.509Z,77.90
2019-01-16T07:03:36.571Z,77.69
2019-01-16T07:06:23.827Z,77.78
2019-01-16T07:09:15.658Z,79.20
2019-01-16T07:12:03.079Z,78.27
2019-01-16T07:14:57.509Z,78.28
2019-01-16T07:17:40.141Z,77.30
2019-01-16T07:20:23.397Z,77.42
2019-01-16T07:23:10.463Z,77.54
2019-01-16T07:25:57.594Z,77.74
2019-01-16T07:28:45.993Z,77.63
2019-01-16T07:31:36.293Z,77.72
2019-01-16T07:34:14.768Z,77.82
2019-01-16T07:37:18.550Z,77.95
2019-01-16T07:40:08.033Z,77.48
2019-01-16T07:42:56.496Z,77.41
2019-01-16T07:45:56.928Z,77.05
2019-01-16T07:48:45.319Z,77.31
2019-01-16T07:51:33.168Z,76.95
2019-01-16T07:54:39.789Z,76.85
2019-01-16T07:57:31.456Z,76.80
2019-01-16T08:00:18.395Z,76.77
2019-01-16T08:03:12.445Z,76.67
2019-01-16T08:06:09.570Z,76.36
2019-01-16T08:08:56.684Z,76.50
2019-01-16T08:11:40.583Z,76.42
2019-01-16T08:14:27.673Z,76.34
2019-01-16T08:17:14.847Z,76.58
2019-01-16T08:20:01.335Z,76.54
2019-01-16T08:22:52.603Z,76.96
2019-01-16T08:25:34.787Z,77.26
2019-01-16T08:28:27.740Z,77.07
2019-01-16T08:31:13.174Z,77.34
2019-01-16T08:34:05.822Z,77.41
2019-01-16T08:36:53.017Z,77.67
2019-01-16T08:39:45.095Z,77.70
2019-01-16T08:42:25.124Z,77.85
2019-01-16T08:45:12.493Z,77.96
2019-01-16T08:48:10.243Z,78.16
2019-01-16T08:51:04.363Z,78.17
2019-01-16T08:53:58.654Z,78.17
2019-01-16T08:56:55.505Z,78.26
2019-01-16T08:59:45.153Z,78.02
2019-01-16T09:02:32.074Z,78.06
2019-01-16T09:05:26.717Z,78.16
2019-01-16T09:08:13.533Z,77.88
2019-01-16T09:11:16.954Z,77.91
2019-01-16T09:13:55.063Z,77.77
2019-01-16T09:16:40.924Z,77.87
2019-01-16T09:19:31.798Z,77.81
2019-01-16T09:22:18.708Z,77.72
2019-01-16T09:25:07.272Z,77.74
2019-01-16T09:27:49.201Z,77.73
2019-01-16T09:30:40.389Z,77.54
2019-01-16T09:33:27.328Z,77.83
2019-01-16T09:36:14.857Z,77.59
2019-01-16T09:39:02.034Z,77.47
2019-01-16T09:41:48.883Z,77.38
2019-01-16T09:44:49.337Z,77.53
2019-01-16T09:47:36.295Z,77.85
2019-01-16T09:50:37.301Z,77.77
2019-01-16T09:53:37.802Z,77.54
2019-01-16T09:56:24.677Z,76.94
2019-01-16T09:59:31.421Z,77.07
2019-01-16T10:02:08.239Z,77.03
2019-01-16T10:04:56.831Z,76.98
2019-01-16T10:07:46.759Z,77.13
2019-01-16T10:10:34.659Z,76.62
2019-01-16T10:13:20.916Z,76.56
2019-01-16T10:16:18.279Z,76.66
2019-01-16T10:19:10.079Z,76.78
2019-01-16T10:22:01.103Z,76.93
2019-01-16T10:24:52.098Z,76.81
2019-01-16T10:27:46.285Z,76.51
2019-01-16T10:30:40.193Z,76.54
2019-01-16T10:33:43.797Z,76.12
2019-01-16T10:36:30.688Z,76.27
2019-01-16T10:39:17.239Z,76.59
2019-01-16T10:41:59.215Z,75.97
2019-01-16T10:44:46.290Z,75.70
2019-01-16T10:47:28.820Z,75.82
2019-01-16T10:50:15.839Z,75.51
2019-01-16T10:53:10.170Z,75.43
2019-01-16T10:56:07.573Z,75.50
2019-01-16T10:58:58.438Z,75.57
2019-01-16T11:01:50.007Z,75.24
2019-01-16T11:04:37.087Z,75.49
2019-01-16T11:07:25.561Z,75.38
2019-01-16T11:10:19.900Z,75.58
2019-01-16T11:13:11.341Z,75.45
2019-01-16T11:16:05.914Z,75.23
2019-01-16T11:18:53.012Z,75.26
2019-01-16T11:21:53.339Z,74.96
2019-01-16T11:24:45.891Z,75.00
2019-01-16T11:27:34.305Z,74.76
2019-01-16T11:30:25.668Z,75.16
2019-01-16T11:33:12.795Z,74.83
2019-01-16T11:36:00.263Z,74.65
2019-01-16T11:38:56.805Z,74.64
2019-01-16T11:41:44.568Z,74.71
2019-01-16T11:44:23.513Z,74.36
2019-01-16T11:47:10.756Z,74.07
2019-01-16T11:50:17.394Z,73.71
2019-01-16T11:53:05.381Z,73.73
2019-01-16T11:55:55.611Z,73.47
2019-01-16T11:58:30.565Z,73.62
2019-01-16T12:01:17.713Z,73.69
2019-01-16T12:04:06.071Z,73.70
2019-01-16T12:06:53.025Z,72.91
2019-01-16T12:09:34.388Z,73.18
2019-01-16T12:12:38.057Z,73.59
2019-01-16T12:15:33.300Z,73.37
2019-01-16T12:18:33.617Z,73.66
2019-01-16T12:21:31.072Z,74.13
2019-01-16T12:24:19.121Z,73.80
2019-01-16T12:27:06.059Z,73.56
2019-01-16T12:30:06.432Z,73.16
2019-01-16T12:32:48.796Z,73.41
2019-01-16T12:35:31.328Z,73.44
2019-01-16T12:38:15.200Z,73.50
2019-01-16T12:41:01.418Z,73.68
2019-01-16T12:44:02.001Z,74.40
2019-01-16T12:46:49.243Z,74.40
2019-01-16T12:49:43.385Z,74.39
2019-01-16T12:52:22.917Z,74.53
2019-01-16T12:55:07.289Z,74.86
2019-01-16T12:57:54.205Z,75.13
2019-01-16T13:00:41.541Z,75.37
2019-01-16T13:03:27.260Z,75.10
2019-01-16T13:06:14.252Z,75.11
2019-01-16T13:09:05.551Z,74.77
2019-01-16T13:11:52.561Z,74.64
2019-01-16T13:14:52.990Z,74.50
2019-01-16T13:17:39.938Z,73.76
2019-01-16T13:20:29.915Z,73.68
2019-01-16T13:23:15.830Z,73.40
2019-01-16T13:26:17.127Z,73.24
2019-01-16T13:29:11.579Z,73.10
2019-01-16T13:32:04.251Z,73.25
2019-01-16T13:34:51.213Z,73.27
2019-01-16T13:37:33.759Z,73.34
2019-01-16T13:40:11.559Z,73.14
2019-01-16T13:42:58.971Z,73.33
2019-01-16T13:45:43.465Z,73.34
2019-01-16T13:48:40.833Z,72.87
2019-01-16T13:51:46.267Z,73.01
2019-01-16T13:54:31.428Z,72.83
2019-01-16T13:57:18.381Z,72.62
2019-01-16T14:00:09.274Z,72.80
2019-01-16T14:02:47.809Z,72.58
2019-01-16T14:05:47.317Z,72.21
2019-01-16T14:08:41.699Z,72.10
2019-01-16T14:11:39.311Z,72.09
2019-01-16T14:14:26.435Z,72.02
2019-01-16T14:17:22.595Z,71.62
2019-01-16T14:20:05.367Z,71.78
2019-01-16T14:22:59.675Z,71.57
2019-01-16T14:25:48.060Z,71.70
2019-01-16T14:28:25.509Z,71.70
2019-01-16T14:31:26.047Z,71.83
2019-01-16T14:34:12.781Z,72.03
2019-01-16T14:36:59.903Z,72.24
2019-01-16T14:39:48.268Z,72.23
2019-01-16T14:42:36.203Z,72.19
2019-01-16T14:45:24.511Z,72.61
2019-01-16T14:48:10.903Z,72.52
2019-01-16T14:50:53.705Z,72.35
2019-01-16T14:53:42.858Z,71.66
2019-01-16T14:56:30.525Z,71.42
2019-01-16T14:59:21.546Z,71.45
2019-01-16T15:02:03.006Z,71.29
2019-01-16T15:04:51.761Z,71.62
2019-01-16T15:07:35.439Z,71.21
2019-01-16T15:10:16.031Z,71.34
2019-01-16T15:13:22.639Z,71.18
2019-01-16T15:16:06.070Z,71.44
2019-01-16T15:18:53.365Z,71.74
2019-01-16T15:21:33.615Z,72.16
2019-01-16T15:24:24.701Z,72.11
2019-01-16T15:27:13.089Z,72.16
2019-01-16T15:30:04.413Z,71.87
2019-01-16T15:32:58.598Z,71.51
2019-01-16T15:35:43.155Z,71.44
2019-01-16T15:38:30.080Z,71.66
2019-01-16T15:41:14.180Z,71.50
2019-01-16T15:43:56.526Z,71.19
2019-01-16T15:46:35.538Z,71.45
2019-01-16T15:49:33.113Z,71.34
2019-01-16T15:52:27.138Z,71.58
2019-01-16T15:55:30.693Z,71.53
2019-01-16T15:58:17.549Z,71.46
2019-01-16T16:01:10.253Z,71.07
2019-01-16T16:03:57.491Z,70.82
2019-01-16T16:06:45.857Z,70.82
2019-01-16T16:09:39.504Z,71.16
2019-01-16T16:12:16.230Z,70.91
2019-01-16T16:15:22.681Z,70.61
2019-01-16T16:18:18.000Z,70.08
2019-01-16T16:21:00.268Z,69.70
2019-01-16T16:23:48.623Z,69.79
2019-01-16T16:26:46.280Z,69.95
2019-01-16T16:29:50.001Z,69.89
2019-01-16T16:32:41.559Z,69.92
2019-01-16T16:35:25.767Z,69.88
2019-01-16T16:38:32.264Z,69.87
2019-01-16T16:41:10.334Z,69.88
2019-01-16T16:43:58.681Z,70.00
2019-01-16T16:47:02.136Z,69.71
2019-01-16T16:49:49.425Z,69.02
2019-01-16T16:52:37.805Z,69.41
2019-01-16T16:55:24.553Z,69.63
2019-01-16T16:58:11.781Z,69.50
2019-01-16T17:01:06.219Z,69.60
2019-01-16T17:03:54.599Z,69.57
2019-01-16T17:06:41.615Z,69.47
2019-01-16T17:09:28.540Z,69.49
2019-01-16T17:12:06.645Z,69.14
2019-01-16T17:15:04.036Z,69.23
2019-01-16T17:18:04.396Z,69.06
2019-01-16T17:21:01.526Z,69.29
2019-01-16T17:23:48.584Z,69.32
2019-01-16T17:26:35.761Z,69.25
2019-01-16T17:29:28.010Z,69.08
2019-01-16T17:32:14.941Z,69.26
2019-01-16T17:34:56.252Z,69.17
2019-01-16T17:37:47.459Z,69.51
2019-01-16T17:40:38.738Z,70.04
2019-01-16T17:43:33.092Z,69.86
2019-01-16T17:46:24.271Z,69.80
2019-01-16T17:49:15.555Z,69.98
2019-01-16T17:51:57.743Z,69.92
2019-01-16T17:54:58.193Z,69.56
2019-01-16T17:57:49.713Z,69.51
2019-01-16T18:00:38.126Z,69.55
2019-01-16T18:03:14.605Z,69.75
2019-01-16T18:06:01.442Z,69.86
2019-01-16T18:08:37.318Z,70.00
2019-01-16T18:11:15.842Z,70.05
2019-01-16T18:14:02.953Z,70.26
2019-01-16T18:16:58.643Z,70.29
2019-01-16T18:19:52.663Z,70.04
2019-01-16T18:22:35.353Z,70.30
2019-01-16T18:25:35.563Z,70.28
2019-01-16T18:28:22.619Z,70.55
2019-01-16T18:31:08.408Z,70.81
2019-01-16T18:33:55.904Z,70.65
2019-01-16T18:36:44.313Z,70.59
2019-01-16T18:39:31.504Z,70.46
2019-01-16T18:42:27.509Z,70.45
2019-01-16T18:45:14.239Z,70.73
2019-01-16T18:48:05.538Z,70.74
2019-01-16T18:50:52.495Z,70.90
2019-01-16T18:53:43.436Z,71.21
2019-01-16T18:56:43.811Z,70.95
2019-01-16T18:59:25.204Z,71.26
2019-01-16T19:02:25.797Z,71.24
2019-01-16T19:05:17.022Z,71.60
2019-01-16T19:08:04.374Z,71.63
2019-01-16T19:10:52.789Z,71.64
2019-01-16T19:13:36.964Z,71.62
2019-01-16T19:16:16.890Z,71.70
2019-01-16T19:19:03.903Z,71.48
2019-01-16T19:21:40.619Z,71.80
2019-01-16T19:24:23.882Z,71.79
2019-01-16T19:27:05.641Z,71.79
2019-01-16T19:29:48.350Z,71.84
2019-01-16T19:32:31.785Z,71.95
2019-01-16T19:35:20.198Z,71.93
2019-01-16T19:38:11.298Z,72.03
2019-01-16T19:40:58.389Z,72.06
2019-01-16T19:43:46.767Z,72.09
2019-01-16T19:46:44.372Z,72.11
2019-01-16T19:49:31.565Z,71.98
2019-01-16T19:52:18.438Z,72.18
2019-01-16T19:55:08.418Z,72.18
2019-01-16T19:57:50.579Z,72.27
2019-01-16T20:00:44.537Z,72.25
2019-01-16T20:03:32.181Z,72.33
2019-01-16T20:06:19.223Z,72.39
2019-01-16T20:09:04.603Z,72.20
2019-01-16T20:11:51.843Z,72.19
2019-01-16T20:14:40.261Z,72.29
2019-01-16T20:17:23.381Z,72.17
2019-01-16T20:20:06.200Z,72.13
2019-01-16T20:23:00.185Z,72.18
2019-01-16T20:25:47.133Z,72.32
2019-01-16T20:28:43.339Z,72.02
2019-01-16T20:31:30.140Z,72.00
2019-01-16T20:34:17.333Z,72.09
2019-01-16T20:37:01.562Z,72.00
2019-01-16T20:39:49.898Z,72.09
2019-01-16T20:42:50.579Z,72.13
2019-01-16T20:45:38.974Z,71.99
2019-01-16T20:48:42.855Z,71.65
2019-01-16T20:51:36.090Z,71.52
2019-01-16T20:54:26.378Z,71.59
2019-01-16T20:57:21.718Z,71.88
2019-01-16T21:00:08.488Z,71.92
2019-01-16T21:03:11.807Z,71.80
2019-01-16T21:05:55.633Z,71.83
2019-01-16T21:08:56.272Z,71.50
2019-01-16T21:11:46.334Z,71.50
2019-01-16T21:14:46.797Z,71.49
2019-01-16T21:17:42.686Z,71.76
2019-01-16T21:20:40.134Z,71.47
2019-01-16T21:23:39.847Z,71.09
2019-01-16T21:26:26.735Z,71.09
2019-01-16T21:29:14.187Z,71.45
2019-01-16T21:32:05.240Z,71.37
2019-01-16T21:35:05.933Z,71.31
2019-01-16T21:37:57.083Z,71.50
2019-01-16T21:40:54.454Z,71.48
2019-01-16T21:43:42.857Z,71.33
2019-01-16T21:46:33.941Z,71.34
2019-01-16T21:49:15.300Z,71.22
2019-01-16T21:51:57.378Z,71.11
2019-01-16T21:54:37.865Z,70.87
2019-01-16T21:57:26.201Z,70.95
2019-01-16T22:00:23.328Z,70.81
2019-01-16T22:03:01.853Z,70.92
2019-01-16T22:05:53.214Z,70.99
2019-01-16T22:08:40.232Z,70.77
2019-01-16T22:11:43.719Z,70.61
2019-01-16T22:14:35.051Z,70.56
2019-01-16T22:17:23.421Z,70.43
2019-01-16T22:20:05.712Z,70.19
2019-01-16T22:22:52.768Z,70.16
2019-01-16T22:25:39.507Z,70.16
2019-01-16T22:28:26.839Z,70.23
2019-01-16T22:31:15.212Z,69.81
2019-01-16T22:34:03.583Z,70.30
2019-01-16T22:36:52.004Z,69.95
2019-01-16T22:39:38.822Z,69.64
2019-01-16T22:42:30.166Z,69.41
2019-01-16T22:45:17.434Z,69.43
2019-01-16T22:48:09.098Z,69.35
2019-01-16T22:51:03.464Z,68.84
2019-01-16T22:53:51.878Z,68.95
2019-01-16T22:56:51.086Z,68.66
2019-01-16T22:59:38.162Z,68.91
2019-01-16T23:02:26.539Z,68.81
2019-01-16T23:05:13.466Z,68.63
2019-01-16T23:07:55.605Z,68.05
2019-01-16T23:10:38.485Z,68.14
2019-01-16T23:13:38.508Z,67.96
2019-01-16T23:16:44.909Z,68.13
2019-01-16T23:19:26.473Z,67.77
2019-01-16T23:22:24.099Z,67.71
2019-01-16T23:25:10.799Z,67.86
2019-01-16T23:28:07.901Z,67.75
2019-01-16T23:31:08.565Z,68.06
2019-01-16T23:33:56.389Z,68.07
2019-01-16T23:36:57.026Z,68.46
2019-01-16T23:39:41.382Z,68.68
2019-01-16T23:42:22.479Z,68.85
2019-01-16T23:45:16.891Z,68.90
2019-01-16T23:48:20.302Z,69.21
2019-01-16T23:51:17.654Z,69.17
2019-01-16T23:54:03.801Z,69.24
2019-01-16T23:56:58.875Z,69.16
2019-01-16T23:59:45.779Z,69.26
